createdAt,value
2023-04-20T00:00:52.897Z,30.26
2023-04-20T00:01:52.860Z,30.23
2023-04-20T00:02:52.814Z,30.22
2023-04-20T00:03:52.996Z,30.19
2023-04-20T00:04:52.612Z,30.22
2023-04-20T00:05:52.501Z,30.21
2023-04-20T00:06:52.405Z,30.25
2023-04-20T00:07:52.331Z,30.22
2023-04-20T00:08:52.264Z,30.23
2023-04-20T00:09:52.129Z,30.20
2023-04-20T00:10:52.006Z,30.29
2023-04-20T00:11:51.856Z,30.23
2023-04-20T00:12:51.752Z,30.27
2023-04-20T00:13:51.654Z,30.23
2023-04-20T00:14:51.584Z,30.20
2023-04-20T00:15:51.489Z,30.26
2023-04-20T00:16:51.416Z,30.20
2023-04-20T00:17:51.339Z,30.20
2023-04-20T00:18:51.247Z,30.23
2023-04-20T00:19:51.143Z,30.22
2023-04-20T00:20:51.077Z,30.26
2023-04-20T00:21:50.952Z,30.23
2023-04-20T00:22:50.864Z,30.25
2023-04-20T00:23:50.736Z,30.25
2023-04-20T00:24:50.634Z,30.23
2023-04-20T00:25:50.551Z,30.19
2023-04-20T00:26:50.469Z,30.23
2023-04-20T00:27:50.404Z,30.23
2023-04-20T00:28:50.308Z,30.19
2023-04-20T00:29:50.253Z,30.23
2023-04-20T00:30:50.207Z,30.20
2023-04-20T00:31:50.054Z,30.25
2023-04-20T00:32:50.021Z,30.20
2023-04-20T00:33:49.913Z,30.19
2023-04-20T00:34:49.829Z,30.16
2023-04-20T00:35:49.719Z,30.23
2023-04-20T00:36:49.640Z,30.19
2023-04-20T00:37:49.548Z,30.20
2023-04-20T00:38:49.495Z,30.27
2023-04-20T00:39:49.413Z,30.22
2023-04-20T00:40:49.330Z,30.20
2023-04-20T00:41:49.233Z,30.26
2023-04-20T00:42:49.161Z,30.22
2023-04-20T00:43:49.093Z,30.20
2023-04-20T00:44:48.993Z,30.22
2023-04-20T00:45:48.984Z,30.19
2023-04-20T00:46:48.835Z,30.13
2023-04-20T00:47:48.801Z,30.19
2023-04-20T00:48:48.685Z,30.25
2023-04-20T00:49:48.580Z,30.19
2023-04-20T00:50:48.502Z,30.25
2023-04-20T00:51:48.439Z,30.20
2023-04-20T00:52:48.381Z,30.26
2023-04-20T00:53:48.279Z,30.25
2023-04-20T00:54:48.186Z,30.20
2023-04-20T00:55:48.099Z,30.20
2023-04-20T00:56:47.993Z,30.22
2023-04-20T00:57:47.922Z,30.22
2023-04-20T00:58:47.830Z,30.23
2023-04-20T00:59:47.745Z,30.20
2023-04-20T01:00:47.675Z,30.24
2023-04-20T01:01:47.667Z,30.19
2023-04-20T01:02:47.563Z,30.20
2023-04-20T01:03:47.559Z,30.25
2023-04-20T01:04:47.317Z,30.24
2023-04-20T01:05:47.229Z,30.22
2023-04-20T01:06:47.131Z,30.20
2023-04-20T01:07:47.045Z,30.19
2023-04-20T01:08:46.941Z,30.16
2023-04-20T01:09:46.909Z,30.18
2023-04-20T01:10:46.788Z,30.20
2023-04-20T01:11:46.714Z,30.19
2023-04-20T01:12:46.654Z,30.22
2023-04-20T01:13:46.575Z,30.19
2023-04-20T01:14:46.430Z,30.15
2023-04-20T01:15:46.393Z,30.20
2023-04-20T01:16:46.267Z,30.23
2023-04-20T01:17:46.221Z,30.20
2023-04-20T01:18:46.094Z,30.17
2023-04-20T01:19:45.964Z,30.19
2023-04-20T01:20:45.863Z,30.25
2023-04-20T01:21:45.786Z,30.21
2023-04-20T01:22:45.712Z,30.25
2023-04-20T01:23:45.637Z,30.18
2023-04-20T01:24:45.563Z,30.20
2023-04-20T01:25:45.483Z,30.24
2023-04-20T01:26:45.386Z,30.19
2023-04-20T01:27:45.274Z,30.16
2023-04-20T01:28:45.198Z,30.19
2023-04-20T01:29:45.113Z,30.19
2023-04-20T01:30:45.054Z,30.22
2023-04-20T01:31:44.971Z,30.19
2023-04-20T01:32:44.907Z,30.20
2023-04-20T01:33:44.758Z,30.18
2023-04-20T01:34:44.615Z,30.20
2023-04-20T01:35:44.467Z,30.18
2023-04-20T01:36:44.339Z,30.15
2023-04-20T01:37:44.198Z,30.23
2023-04-20T01:38:44.047Z,30.18
2023-04-20T01:39:43.919Z,30.16
2023-04-20T01:40:43.735Z,30.18
2023-04-20T01:41:43.578Z,30.16
2023-04-20T01:42:43.451Z,30.19
2023-04-20T01:43:43.387Z,30.18
2023-04-20T01:44:43.312Z,30.15
2023-04-20T01:45:43.249Z,30.16
2023-04-20T01:46:43.213Z,30.16
2023-04-20T01:47:43.131Z,30.16
2023-04-20T01:48:43.061Z,30.13
2023-04-20T01:49:42.947Z,30.23
2023-04-20T01:50:42.883Z,30.15
2023-04-20T01:51:42.796Z,30.21
2023-04-20T01:52:42.721Z,30.17
2023-04-20T01:53:42.668Z,30.16
2023-04-20T01:54:42.563Z,30.19
2023-04-20T01:55:42.502Z,30.10
2023-04-20T01:56:42.414Z,30.19
2023-04-20T01:57:42.337Z,30.19
2023-04-20T01:58:42.281Z,30.22
2023-04-20T01:59:42.198Z,30.12
2023-04-20T02:00:42.158Z,30.13
2023-04-20T02:01:42.052Z,30.17
2023-04-20T02:02:42.121Z,30.15
2023-04-20T02:03:42.085Z,30.18
2023-04-20T02:04:41.792Z,30.16
2023-04-20T02:05:41.689Z,30.17
2023-04-20T02:06:41.580Z,30.16
2023-04-20T02:07:41.494Z,30.19
2023-04-20T02:08:41.423Z,30.18
2023-04-20T02:09:41.326Z,30.13
2023-04-20T02:10:41.265Z,30.16
2023-04-20T02:11:41.173Z,30.16
2023-04-20T02:12:41.109Z,30.19
2023-04-20T02:13:41.019Z,30.13
2023-04-20T02:14:40.885Z,30.16
2023-04-20T02:15:40.831Z,30.12
2023-04-20T02:16:40.741Z,30.10
2023-04-20T02:17:40.718Z,30.13
2023-04-20T02:18:40.561Z,30.15
2023-04-20T02:20:59.354Z,30.21
2023-04-20T02:21:59.361Z,30.19
2023-04-20T02:22:59.369Z,30.17
2023-04-20T02:23:59.390Z,30.19
2023-04-20T02:24:59.383Z,30.17
2023-04-20T02:25:59.384Z,30.10
2023-04-20T02:26:59.386Z,30.16
2023-04-20T02:27:59.399Z,30.16
2023-04-20T02:28:59.439Z,30.15
2023-04-20T02:29:59.385Z,30.17
2023-04-20T02:30:59.429Z,30.12
2023-04-20T02:31:59.395Z,30.15
2023-04-20T02:32:59.434Z,30.12
2023-04-20T02:33:59.425Z,30.09
2023-04-20T02:34:59.423Z,30.15
2023-04-20T02:35:59.455Z,30.15
2023-04-20T02:36:59.442Z,30.13
2023-04-20T02:37:59.459Z,30.10
2023-04-20T02:38:59.445Z,30.08
2023-04-20T02:39:59.446Z,30.10
2023-04-20T02:40:59.470Z,30.13
2023-04-20T02:41:59.495Z,30.15
2023-04-20T02:42:59.505Z,30.14
2023-04-20T02:43:59.549Z,30.13
2023-04-20T02:44:59.575Z,30.10
2023-04-20T02:45:59.731Z,30.00
2023-04-20T02:46:59.658Z,28.40
2023-04-20T02:47:59.738Z,28.24
2023-04-20T02:48:59.777Z,28.15
2023-04-20T02:49:59.809Z,27.96
2023-04-20T02:50:59.888Z,27.82
2023-04-20T02:51:59.968Z,27.74
2023-04-20T02:53:00.068Z,27.67
2023-04-20T02:54:00.190Z,27.55
2023-04-20T02:55:00.195Z,27.47
2023-04-20T02:56:00.235Z,27.37
2023-04-20T02:57:00.263Z,27.28
2023-04-20T02:58:00.305Z,27.24
2023-04-20T02:59:00.343Z,27.20
2023-04-20T03:00:00.390Z,27.11
2023-04-20T03:01:00.424Z,27.21
2023-04-20T03:02:00.591Z,27.10
2023-04-20T03:03:00.674Z,27.00
2023-04-20T03:04:00.665Z,26.86
2023-04-20T03:05:00.655Z,26.88
2023-04-20T03:06:00.742Z,26.85
2023-04-20T03:07:00.819Z,26.71
2023-04-20T03:08:00.889Z,26.61
2023-04-20T03:09:00.966Z,26.51
2023-04-20T03:10:01.086Z,26.43
2023-04-20T03:11:01.109Z,26.40
2023-04-20T03:12:01.185Z,26.41
2023-04-20T03:13:01.268Z,26.34
2023-04-20T03:14:01.370Z,26.44
2023-04-20T03:15:01.463Z,26.28
2023-04-20T03:16:01.547Z,26.27
2023-04-20T03:17:01.640Z,26.35
2023-04-20T03:18:01.732Z,26.22
2023-04-20T03:19:01.776Z,26.17
2023-04-20T03:20:01.850Z,26.17
2023-04-20T03:21:01.915Z,26.19
2023-04-20T03:22:02.008Z,26.13
2023-04-20T03:23:02.074Z,26.20
2023-04-20T03:24:02.157Z,26.14
2023-04-20T03:25:02.219Z,26.10
2023-04-20T03:26:02.302Z,25.98
2023-04-20T03:27:02.344Z,26.00
2023-04-20T03:28:02.421Z,26.05
2023-04-20T03:29:02.485Z,25.95
2023-04-20T03:30:02.564Z,25.85
2023-04-20T03:31:02.631Z,25.88
2023-04-20T03:32:02.795Z,25.79
2023-04-20T03:33:02.959Z,25.95
2023-04-20T03:34:02.897Z,25.86
2023-04-20T03:35:02.968Z,25.79
2023-04-20T03:36:03.051Z,25.87
2023-04-20T03:37:03.155Z,25.81
2023-04-20T03:38:03.229Z,25.90
2023-04-20T03:39:03.330Z,25.87
2023-04-20T03:40:03.389Z,25.94
2023-04-20T03:41:03.487Z,25.76
2023-04-20T03:42:03.573Z,25.82
2023-04-20T03:43:03.640Z,25.94
2023-04-20T03:44:03.714Z,25.84
2023-04-20T03:45:03.813Z,25.79
2023-04-20T03:46:03.930Z,25.73
2023-04-20T03:47:04.000Z,25.74
2023-04-20T03:48:04.146Z,25.75
2023-04-20T03:49:04.214Z,25.85
2023-04-20T03:50:04.294Z,25.73
2023-04-20T03:51:04.392Z,25.74
2023-04-20T03:52:04.485Z,25.78
2023-04-20T03:53:04.577Z,25.73
2023-04-20T03:54:04.686Z,25.72
2023-04-20T03:55:04.799Z,25.83
2023-04-20T03:56:04.875Z,25.76
2023-04-20T03:57:04.980Z,25.76
2023-04-20T03:58:05.070Z,25.73
2023-04-20T03:59:05.161Z,25.69
2023-04-20T04:00:05.286Z,25.75
2023-04-20T04:01:05.384Z,25.90
2023-04-20T04:02:05.498Z,25.73
2023-04-20T04:03:05.681Z,25.72
2023-04-20T04:04:05.928Z,25.74
2023-04-20T04:05:05.780Z,25.81
2023-04-20T04:06:05.777Z,25.73
2023-04-20T04:07:05.840Z,25.81
2023-04-20T04:08:05.917Z,25.75
2023-04-20T04:09:05.986Z,25.85
2023-04-20T04:10:06.081Z,25.75
2023-04-20T04:11:06.130Z,25.77
2023-04-20T04:12:06.212Z,25.81
2023-04-20T04:13:06.285Z,25.72
2023-04-20T04:14:06.368Z,25.81
2023-04-20T04:15:06.423Z,25.71
2023-04-20T04:16:06.504Z,25.72
2023-04-20T04:17:06.628Z,25.70
2023-04-20T04:18:06.703Z,25.70
2023-04-20T04:19:06.624Z,25.68
2023-04-20T04:20:06.661Z,25.77
2023-04-20T04:21:06.701Z,25.76
2023-04-20T04:22:06.729Z,25.69
2023-04-20T04:23:06.761Z,25.74
2023-04-20T04:24:06.787Z,25.74
2023-04-20T04:25:06.812Z,25.83
2023-04-20T04:26:06.836Z,25.69
2023-04-20T04:27:06.873Z,25.77
2023-04-20T04:28:06.920Z,25.68
2023-04-20T04:29:06.948Z,25.85
2023-04-20T04:30:06.981Z,25.68
2023-04-20T04:31:07.074Z,25.71
2023-04-20T04:32:07.157Z,25.89
2023-04-20T04:33:07.268Z,25.68
2023-04-20T04:34:07.314Z,25.70
2023-04-20T04:35:07.428Z,25.66
2023-04-20T04:36:07.505Z,25.61
2023-04-20T04:37:07.561Z,25.68
2023-04-20T04:38:07.650Z,25.62
2023-04-20T04:39:07.729Z,25.67
2023-04-20T04:40:07.810Z,25.64
2023-04-20T04:41:07.860Z,25.69
2023-04-20T04:42:07.928Z,25.61
2023-04-20T04:43:07.972Z,25.72
2023-04-20T04:44:08.036Z,25.63
2023-04-20T04:45:08.122Z,25.52
2023-04-20T04:46:08.313Z,25.62
2023-04-20T04:47:08.310Z,25.64
2023-04-20T04:48:09.091Z,25.68
2023-04-20T04:49:08.489Z,25.68
2023-04-20T04:50:08.542Z,25.61
2023-04-20T04:51:08.614Z,25.61
2023-04-20T04:52:08.731Z,25.75
2023-04-20T04:53:08.803Z,26.01
2023-04-20T04:54:08.900Z,26.64
2023-04-20T04:55:08.984Z,26.64
2023-04-20T04:56:09.047Z,26.86
2023-04-20T04:57:09.107Z,26.47
2023-04-20T04:58:09.131Z,26.32
2023-04-20T04:59:09.190Z,26.42
2023-04-20T05:00:09.218Z,26.34
2023-04-20T05:01:09.251Z,26.22
2023-04-20T05:02:09.369Z,26.27
2023-04-20T05:03:09.374Z,26.28
2023-04-20T05:04:09.475Z,26.26
2023-04-20T05:05:10.147Z,26.25
2023-04-20T05:06:09.374Z,26.20
2023-04-20T05:07:09.396Z,26.24
2023-04-20T05:08:09.416Z,26.31
2023-04-20T05:09:09.440Z,26.30
2023-04-20T05:10:09.482Z,26.37
2023-04-20T05:11:09.493Z,26.27
2023-04-20T05:12:09.522Z,26.40
2023-04-20T05:13:09.558Z,26.37
2023-04-20T05:14:09.637Z,26.36
2023-04-20T05:15:09.582Z,26.46
2023-04-20T05:16:09.674Z,26.40
2023-04-20T05:17:09.628Z,26.45
2023-04-20T05:18:09.654Z,26.53
2023-04-20T05:19:09.710Z,26.55
2023-04-20T05:20:09.742Z,26.56
2023-04-20T05:21:09.789Z,26.52
2023-04-20T05:22:09.797Z,26.50
2023-04-20T05:23:09.804Z,26.59
2023-04-20T05:24:09.837Z,26.47
2023-04-20T05:26:09.837Z,25.91
2023-04-20T05:27:09.847Z,25.82
2023-04-20T05:28:09.859Z,25.83
2023-04-20T05:29:09.914Z,25.84
2023-04-20T05:30:20.372Z,25.86
2023-04-20T05:31:10.924Z,25.81
2023-04-20T05:32:10.002Z,25.89
2023-04-20T05:33:10.032Z,25.94
2023-04-20T05:34:10.017Z,25.94
2023-04-20T05:35:10.008Z,25.92
2023-04-20T05:36:10.053Z,25.89
2023-04-20T05:37:10.069Z,25.96
2023-04-20T05:38:10.103Z,25.90
2023-04-20T05:39:10.124Z,25.91
2023-04-20T05:40:10.181Z,25.84
2023-04-20T05:41:10.226Z,25.79
2023-04-20T05:42:10.249Z,25.89
2023-04-20T05:43:10.267Z,25.85
2023-04-20T05:44:10.370Z,25.92
2023-04-20T05:45:10.363Z,25.85
2023-04-20T05:46:10.513Z,25.82
2023-04-20T05:47:10.399Z,25.89
2023-04-20T05:48:10.448Z,25.77
2023-04-20T05:49:10.599Z,25.78
2023-04-20T05:50:10.486Z,25.80
2023-04-20T05:51:10.513Z,25.82
2023-04-20T05:52:10.577Z,25.78
2023-04-20T05:53:10.557Z,25.85
2023-04-20T05:54:10.598Z,25.85
2023-04-20T05:55:10.628Z,25.85
2023-04-20T05:56:10.684Z,25.85
2023-04-20T05:57:10.701Z,25.73
2023-04-20T05:58:10.720Z,25.84
2023-04-20T05:59:10.806Z,25.71
2023-04-20T06:00:10.772Z,25.72
2023-04-20T06:01:10.814Z,25.72
2023-04-20T06:02:10.974Z,25.81
2023-04-20T06:03:11.196Z,25.63
2023-04-20T06:04:11.296Z,25.72
2023-04-20T06:06:11.013Z,25.63
2023-04-20T06:07:11.028Z,25.60
2023-04-20T06:08:11.069Z,25.61
2023-04-20T06:09:11.113Z,25.61
2023-04-20T06:10:11.142Z,25.64
2023-04-20T06:12:30.141Z,25.76
2023-04-20T06:13:30.136Z,25.69
2023-04-20T06:14:30.141Z,25.76
2023-04-20T06:15:30.156Z,25.70
2023-04-20T06:16:30.237Z,25.74
2023-04-20T06:17:30.166Z,25.73
2023-04-20T06:18:30.212Z,25.79
2023-04-20T06:19:30.171Z,25.70
2023-04-20T06:20:30.155Z,25.76
2023-04-20T06:21:30.180Z,25.83
2023-04-20T06:22:30.176Z,25.73
2023-04-20T06:23:30.193Z,25.74
2023-04-20T06:24:30.144Z,25.67
2023-04-20T06:25:30.148Z,25.81
2023-04-20T06:26:30.142Z,25.76
2023-04-20T06:27:30.147Z,25.67
2023-04-20T06:28:30.142Z,25.74
2023-04-20T06:29:30.140Z,25.74
2023-04-20T06:30:30.170Z,25.66
2023-04-20T06:31:30.218Z,25.66
2023-04-20T06:32:30.154Z,25.63
2023-04-20T06:33:30.134Z,25.68
2023-04-20T06:34:30.139Z,25.70
2023-04-20T06:35:30.118Z,25.74
2023-04-20T06:36:30.145Z,25.77
2023-04-20T06:37:30.119Z,25.78
2023-04-20T06:38:30.141Z,25.75
2023-04-20T06:39:30.146Z,25.85
2023-04-20T06:40:30.190Z,25.84
2023-04-20T06:41:30.142Z,25.74
2023-04-20T06:42:30.120Z,25.82
2023-04-20T06:43:30.121Z,25.70
2023-04-20T06:44:30.142Z,25.75
2023-04-20T06:45:31.236Z,25.83
2023-04-20T06:46:30.231Z,25.89
2023-04-20T06:47:30.172Z,25.84
2023-04-20T06:48:32.647Z,25.86
2023-04-20T06:49:30.183Z,25.76
2023-04-20T06:50:30.154Z,25.85
2023-04-20T06:51:30.173Z,25.85
2023-04-20T06:52:30.151Z,25.82
2023-04-20T06:53:30.148Z,25.90
2023-04-20T06:54:30.202Z,25.85
2023-04-20T06:55:30.176Z,25.89
2023-04-20T06:56:30.174Z,25.90
2023-04-20T06:57:30.164Z,25.81
2023-04-20T06:58:30.142Z,25.86
2023-04-20T06:59:30.157Z,25.88
2023-04-20T07:00:30.329Z,25.81
2023-04-20T07:01:30.200Z,25.89
2023-04-20T07:02:30.184Z,25.93
2023-04-20T07:03:30.293Z,25.99
2023-04-20T07:04:30.227Z,25.96
2023-04-20T07:05:30.173Z,25.99
2023-04-20T07:06:30.180Z,25.92
2023-04-20T07:07:30.181Z,25.93
2023-04-20T07:08:30.194Z,25.95
2023-04-20T07:09:30.198Z,25.98
2023-04-20T07:10:30.222Z,25.95
2023-04-20T07:11:30.175Z,26.02
2023-04-20T07:12:30.175Z,26.00
2023-04-20T07:13:33.442Z,25.95
2023-04-20T07:14:30.192Z,25.99
2023-04-20T07:15:30.198Z,26.04
2023-04-20T07:16:30.234Z,25.98
2023-04-20T07:17:30.209Z,25.95
2023-04-20T07:18:30.216Z,25.95
2023-04-20T07:19:30.191Z,26.01
2023-04-20T07:20:30.194Z,26.09
2023-04-20T07:21:30.228Z,26.06
2023-04-20T07:22:30.242Z,26.12
2023-04-20T07:23:30.239Z,26.10
2023-04-20T07:24:30.206Z,26.11
2023-04-20T07:25:30.205Z,26.18
2023-04-20T07:26:30.209Z,26.15
2023-04-20T07:27:30.201Z,26.09
2023-04-20T07:28:30.208Z,26.14
2023-04-20T07:29:30.980Z,26.24
2023-04-20T07:30:30.217Z,26.14
2023-04-20T07:31:30.224Z,26.13
2023-04-20T07:32:30.303Z,26.24
2023-04-20T07:33:30.239Z,26.27
2023-04-20T07:34:30.263Z,26.29
2023-04-20T07:35:30.222Z,26.20
2023-04-20T07:36:30.209Z,26.24
2023-04-20T07:37:30.233Z,26.31
2023-04-20T07:38:30.203Z,26.32
2023-04-20T07:39:30.240Z,26.32
2023-04-20T07:40:30.213Z,26.36
2023-04-20T07:41:30.258Z,26.48
2023-04-20T07:42:30.327Z,26.39
2023-04-20T07:43:30.380Z,26.45
2023-04-20T07:44:30.456Z,26.51
2023-04-20T07:45:30.559Z,26.41
2023-04-20T07:46:30.558Z,26.45
2023-04-20T07:47:30.652Z,26.48
2023-04-20T07:48:30.626Z,26.48
2023-04-20T07:49:30.617Z,26.49
2023-04-20T07:50:30.634Z,26.58
2023-04-20T07:51:30.629Z,26.55
2023-04-20T07:52:30.645Z,26.65
2023-04-20T07:53:30.608Z,26.61
2023-04-20T07:54:30.615Z,26.66
2023-04-20T07:55:30.608Z,26.59
2023-04-20T07:56:30.593Z,26.70
2023-04-20T07:57:30.592Z,26.65
2023-04-20T07:58:30.611Z,26.76
2023-04-20T07:59:30.635Z,26.77
2023-04-20T08:00:30.654Z,26.82
2023-04-20T08:01:30.695Z,26.76
2023-04-20T08:02:30.860Z,26.83
2023-04-20T08:03:31.064Z,26.82
2023-04-20T08:04:31.185Z,26.80
2023-04-20T08:05:31.130Z,26.82
2023-04-20T08:06:30.968Z,26.82
2023-04-20T08:07:30.983Z,26.92
2023-04-20T08:08:31.074Z,26.82
2023-04-20T08:09:31.094Z,26.89
2023-04-20T08:10:31.125Z,26.92
2023-04-20T08:11:31.181Z,26.96
2023-04-20T08:12:31.223Z,26.87
2023-04-20T08:13:31.286Z,26.96
2023-04-20T08:14:31.298Z,26.95
2023-04-20T08:15:31.725Z,26.96
2023-04-20T08:16:31.425Z,26.96
2023-04-20T08:17:31.619Z,26.99
2023-04-20T08:18:31.457Z,27.01
2023-04-20T08:19:31.478Z,27.06
2023-04-20T08:21:31.537Z,26.99
2023-04-20T08:22:31.603Z,27.03
2023-04-20T08:23:31.619Z,27.09
2023-04-20T08:24:31.693Z,27.11
2023-04-20T08:25:31.698Z,27.16
2023-04-20T08:26:31.755Z,27.14
2023-04-20T08:27:31.793Z,27.26
2023-04-20T08:28:33.832Z,27.35
2023-04-20T08:29:31.919Z,27.36
2023-04-20T08:30:31.939Z,27.45
2023-04-20T08:31:32.065Z,27.45
2023-04-20T08:32:32.087Z,27.49
2023-04-20T08:33:32.115Z,27.50
2023-04-20T08:34:32.142Z,27.52
2023-04-20T08:35:32.071Z,27.52
2023-04-20T08:36:32.094Z,27.63
2023-04-20T08:37:33.050Z,27.58
2023-04-20T08:38:34.208Z,27.60
2023-04-20T08:39:32.100Z,27.63
2023-04-20T08:40:32.086Z,27.58
2023-04-20T08:41:32.085Z,27.63
2023-04-20T08:42:32.152Z,27.69
2023-04-20T08:43:32.187Z,27.67
2023-04-20T08:44:32.261Z,27.63
2023-04-20T08:45:32.274Z,27.60
2023-04-20T08:46:32.310Z,27.53
2023-04-20T08:47:32.280Z,27.64
2023-04-20T08:48:33.659Z,27.51
2023-04-20T08:49:32.275Z,27.31
2023-04-20T08:50:32.287Z,27.26
2023-04-20T08:51:32.250Z,27.23
2023-04-20T08:52:32.217Z,27.17
2023-04-20T08:53:32.190Z,27.06
2023-04-20T08:54:32.614Z,27.06
2023-04-20T08:55:32.166Z,26.97
2023-04-20T08:56:32.141Z,26.95
2023-04-20T08:57:32.119Z,26.92
2023-04-20T08:58:32.127Z,26.85
2023-04-20T08:59:32.192Z,26.86
2023-04-20T09:00:32.153Z,26.80
2023-04-20T09:01:35.575Z,26.85
2023-04-20T09:02:32.409Z,26.77
2023-04-20T09:03:32.428Z,26.79
2023-04-20T09:04:32.238Z,26.82
2023-04-20T09:05:32.204Z,26.80
2023-04-20T09:06:32.063Z,26.77
2023-04-20T09:07:32.010Z,26.75
2023-04-20T09:08:32.106Z,26.73
2023-04-20T09:09:31.987Z,26.75
2023-04-20T09:10:31.950Z,26.82
2023-04-20T09:11:31.915Z,26.81
2023-04-20T09:12:31.907Z,26.78
2023-04-20T09:13:31.867Z,26.80
2023-04-20T09:14:31.814Z,26.79
2023-04-20T09:15:31.778Z,26.80
2023-04-20T09:16:31.819Z,26.86
2023-04-20T09:17:31.719Z,26.83
2023-04-20T09:18:31.660Z,26.84
2023-04-20T09:19:31.694Z,26.87
2023-04-20T09:20:31.708Z,26.86
2023-04-20T09:21:31.595Z,26.97
2023-04-20T09:22:31.516Z,26.95
2023-04-20T09:23:31.491Z,26.92
2023-04-20T09:24:31.476Z,26.90
2023-04-20T09:25:31.436Z,26.96
2023-04-20T09:26:31.405Z,27.02
2023-04-20T09:27:31.399Z,26.91
2023-04-20T09:28:31.315Z,27.01
2023-04-20T09:29:31.292Z,27.06
2023-04-20T09:30:31.270Z,26.93
2023-04-20T09:31:31.296Z,27.04
2023-04-20T09:32:31.270Z,27.06
2023-04-20T09:33:31.173Z,27.04
2023-04-20T09:34:31.184Z,26.97
2023-04-20T09:35:31.163Z,27.03
2023-04-20T09:36:31.166Z,27.01
2023-04-20T09:37:31.209Z,27.11
2023-04-20T09:38:31.159Z,27.16
2023-04-20T09:39:31.149Z,27.05
2023-04-20T09:40:31.290Z,27.05
2023-04-20T09:41:31.133Z,27.05
2023-04-20T09:42:31.136Z,27.08
2023-04-20T09:43:31.229Z,27.10
2023-04-20T09:44:31.112Z,27.06
2023-04-20T09:45:31.131Z,27.03
2023-04-20T09:46:31.255Z,27.10
2023-04-20T09:47:31.181Z,27.03
2023-04-20T09:48:32.149Z,26.99
2023-04-20T09:49:31.082Z,27.01
2023-04-20T09:50:41.832Z,27.08
2023-04-20T09:51:32.043Z,27.06
2023-04-20T09:52:30.957Z,27.11
2023-04-20T09:53:30.932Z,27.11
2023-04-20T09:54:30.903Z,27.14
2023-04-20T09:55:30.878Z,26.98
2023-04-20T09:56:30.871Z,27.12
2023-04-20T09:57:30.808Z,27.10
2023-04-20T09:58:30.803Z,27.06
2023-04-20T09:59:30.745Z,26.99
2023-04-20T10:00:30.745Z,27.13
2023-04-20T10:01:30.711Z,27.04
2023-04-20T10:02:30.791Z,27.05
2023-04-20T10:03:30.841Z,27.00
2023-04-20T10:04:30.683Z,26.94
2023-04-20T10:05:30.564Z,27.01
2023-04-20T10:06:30.547Z,26.97
2023-04-20T10:07:30.480Z,26.99
2023-04-20T10:08:30.480Z,27.01
2023-04-20T10:09:30.420Z,26.99
2023-04-20T10:10:30.387Z,26.98
2023-04-20T10:11:40.549Z,26.93
2023-04-20T10:12:31.425Z,26.94
2023-04-20T10:13:30.305Z,26.88
2023-04-20T10:14:30.288Z,26.94
2023-04-20T10:15:30.249Z,26.91
2023-04-20T10:16:30.234Z,26.86
2023-04-20T10:17:30.225Z,26.90
2023-04-20T10:18:30.230Z,26.89
2023-04-20T10:19:30.116Z,26.92
2023-04-20T10:20:30.161Z,26.85
2023-04-20T10:21:30.069Z,26.88
2023-04-20T10:22:30.057Z,26.88
2023-04-20T10:23:30.019Z,26.94
2023-04-20T10:24:29.942Z,26.93
2023-04-20T10:25:29.908Z,26.79
2023-04-20T10:26:29.874Z,26.83
2023-04-20T10:27:29.829Z,26.79
2023-04-20T10:28:29.800Z,26.85
2023-04-20T10:29:29.766Z,26.85
2023-04-20T10:30:29.749Z,26.86
2023-04-20T10:31:29.751Z,26.89
2023-04-20T10:32:29.753Z,26.82
2023-04-20T10:33:29.674Z,26.82
2023-04-20T10:34:29.624Z,26.85
2023-04-20T10:35:29.559Z,26.84
2023-04-20T10:36:29.572Z,26.81
2023-04-20T10:37:29.584Z,26.85
2023-04-20T10:38:29.650Z,26.89
2023-04-20T10:39:29.630Z,26.89
2023-04-20T10:40:29.697Z,26.87
2023-04-20T10:41:29.704Z,26.92
2023-04-20T10:42:29.874Z,26.91
2023-04-20T10:43:29.724Z,26.99
2023-04-20T10:44:29.762Z,26.93
2023-04-20T10:45:29.795Z,26.97
2023-04-20T10:46:29.815Z,26.95
2023-04-20T10:47:29.898Z,26.90
2023-04-20T10:48:29.835Z,26.87
2023-04-20T10:49:29.858Z,27.01
2023-04-20T10:50:29.871Z,26.90
2023-04-20T10:51:29.868Z,26.99
2023-04-20T10:52:29.877Z,26.97
2023-04-20T10:53:29.919Z,26.92
2023-04-20T10:54:29.922Z,26.96
2023-04-20T10:55:29.934Z,27.01
2023-04-20T10:56:29.966Z,26.97
2023-04-20T10:57:29.912Z,27.07
2023-04-20T10:58:29.979Z,26.99
2023-04-20T10:59:29.925Z,26.97
2023-04-20T11:00:29.943Z,27.03
2023-04-20T11:01:29.956Z,27.11
2023-04-20T11:02:29.994Z,27.08
2023-04-20T11:03:29.933Z,27.07
2023-04-20T11:04:29.874Z,27.02
2023-04-20T11:05:29.772Z,27.01
2023-04-20T11:06:29.735Z,26.94
2023-04-20T11:07:29.695Z,26.94
2023-04-20T11:08:29.677Z,26.96
2023-04-20T11:09:29.636Z,27.08
2023-04-20T11:10:29.587Z,27.09
2023-04-20T11:11:29.549Z,27.09
2023-04-20T11:12:29.491Z,26.99
2023-04-20T11:13:29.463Z,27.04
2023-04-20T11:14:29.412Z,26.98
2023-04-20T11:15:29.370Z,27.05
2023-04-20T11:16:44.397Z,27.01
2023-04-20T11:17:30.384Z,27.01
2023-04-20T11:18:29.228Z,27.00
2023-04-20T11:19:29.225Z,27.00
2023-04-20T11:20:29.141Z,27.01
2023-04-20T11:21:29.128Z,27.03
2023-04-20T11:22:29.081Z,26.99
2023-04-20T11:23:29.065Z,27.00
2023-04-20T11:24:29.018Z,26.95
2023-04-20T11:25:28.967Z,27.03
2023-04-20T11:26:28.971Z,27.09
2023-04-20T11:27:28.882Z,27.03
2023-04-20T11:28:28.822Z,26.95
2023-04-20T11:29:28.785Z,27.04
2023-04-20T11:30:28.760Z,27.02
2023-04-20T11:31:28.749Z,27.00
2023-04-20T11:32:28.860Z,27.05
2023-04-20T11:33:28.654Z,26.99
2023-04-20T11:34:28.541Z,27.01
2023-04-20T11:35:28.513Z,26.97
2023-04-20T11:36:28.477Z,26.94
2023-04-20T11:37:28.437Z,26.97
2023-04-20T11:38:28.391Z,26.95
2023-04-20T11:39:28.366Z,26.97
2023-04-20T11:40:28.781Z,26.97
2023-04-20T11:41:28.281Z,26.97
2023-04-20T11:42:28.249Z,27.00
2023-04-20T11:43:28.185Z,26.93
2023-04-20T11:44:28.163Z,27.00
2023-04-20T11:45:28.173Z,27.07
2023-04-20T11:46:28.149Z,27.37
2023-04-20T11:47:28.062Z,27.29
2023-04-20T11:48:28.117Z,27.39
2023-04-20T11:49:27.954Z,27.46
2023-04-20T11:50:27.965Z,27.45
2023-04-20T11:51:27.900Z,27.37
2023-04-20T11:52:27.842Z,27.42
2023-04-20T11:53:27.819Z,27.37
2023-04-20T11:54:27.803Z,27.37
2023-04-20T11:55:27.718Z,27.37
2023-04-20T11:56:28.543Z,27.34
2023-04-20T11:57:27.642Z,27.33
2023-04-20T11:58:27.573Z,27.30
2023-04-20T11:59:27.541Z,27.40
2023-04-20T12:00:27.526Z,27.38
2023-04-20T12:01:27.453Z,27.46
2023-04-20T12:02:27.555Z,27.51
2023-04-20T12:03:27.607Z,27.51
2023-04-20T12:04:27.633Z,27.54
2023-04-20T12:05:27.443Z,28.58
2023-04-20T12:06:27.283Z,28.15
2023-04-20T12:07:27.216Z,31.67
2023-04-20T12:08:27.165Z,30.71
2023-04-20T12:09:27.125Z,31.02
2023-04-20T12:10:27.097Z,30.91
2023-04-20T12:11:27.064Z,31.15
2023-04-20T12:12:27.011Z,31.48
2023-04-20T12:13:26.955Z,31.46
2023-04-20T12:14:26.933Z,31.65
2023-04-20T12:15:26.893Z,31.53
2023-04-20T12:16:26.987Z,31.59
2023-04-20T12:17:26.863Z,31.31
2023-04-20T12:18:26.856Z,31.39
2023-04-20T12:19:26.777Z,31.18
2023-04-20T12:20:26.825Z,31.14
2023-04-20T12:21:26.723Z,31.05
2023-04-20T12:22:26.724Z,31.03
2023-04-20T12:23:26.702Z,30.95
2023-04-20T12:24:26.675Z,30.85
2023-04-20T12:25:26.665Z,30.71
2023-04-20T12:26:34.844Z,30.74
2023-04-20T12:27:27.618Z,30.46
2023-04-20T12:28:26.558Z,30.33
2023-04-20T12:29:26.519Z,30.33
2023-04-20T12:30:26.468Z,30.17
2023-04-20T12:31:26.727Z,30.17
2023-04-20T12:32:26.391Z,30.19
2023-04-20T12:33:26.324Z,30.16
2023-04-20T12:34:26.288Z,30.15
2023-04-20T12:35:26.242Z,30.15
2023-04-20T12:36:26.245Z,29.98
2023-04-20T12:37:26.165Z,30.01
2023-04-20T12:38:26.156Z,29.90
2023-04-20T12:39:26.088Z,29.81
2023-04-20T12:40:26.059Z,29.76
2023-04-20T12:41:25.978Z,29.71
2023-04-20T12:42:25.955Z,29.68
2023-04-20T12:43:25.888Z,29.69
2023-04-20T12:44:25.850Z,29.75
2023-04-20T12:45:25.821Z,29.65
2023-04-20T12:46:25.903Z,29.59
2023-04-20T12:47:25.768Z,29.62
2023-04-20T12:48:25.674Z,29.59
2023-04-20T12:49:25.663Z,29.59
2023-04-20T12:50:25.618Z,29.59
2023-04-20T12:51:25.581Z,29.55
2023-04-20T12:52:25.566Z,29.59
2023-04-20T12:53:25.500Z,29.44
2023-04-20T12:54:25.435Z,29.39
2023-04-20T12:55:25.401Z,29.40
2023-04-20T12:56:25.344Z,29.40
2023-04-20T12:57:25.286Z,29.44
2023-04-20T12:58:25.259Z,29.44